createdAt,value
2024-05-09T00:00:01.041Z,1022.80
2024-05-09T00:01:01.359Z,1022.73
2024-05-09T00:02:01.705Z,1022.79
2024-05-09T00:03:02.003Z,1022.78
2024-05-09T00:04:02.462Z,1022.77
2024-05-09T00:05:02.767Z,1022.79
2024-05-09T00:06:03.117Z,1022.77
2024-05-09T00:07:03.196Z,1022.74
2024-05-09T00:08:03.546Z,1022.75
2024-05-09T00:09:03.850Z,1022.73
2024-05-09T00:10:05.541Z,1022.74
2024-05-09T00:11:04.535Z,1022.74
2024-05-09T00:12:04.761Z,1022.77
2024-05-09T00:13:05.288Z,1022.76
2024-05-09T00:14:05.310Z,1022.74
2024-05-09T00:15:05.566Z,1022.71
2024-05-09T00:16:05.917Z,1022.78
2024-05-09T00:17:06.317Z,1022.75
2024-05-09T00:18:07.608Z,1022.76
2024-05-09T00:19:06.867Z,1022.78
2024-05-09T00:20:13.988Z,1022.74
2024-05-09T00:21:08.546Z,1022.75
2024-05-09T00:22:07.558Z,1022.76
2024-05-09T00:23:08.183Z,1022.77
2024-05-09T00:24:08.152Z,1022.71
2024-05-09T00:25:08.420Z,1022.76
2024-05-09T00:26:08.764Z,1022.75
2024-05-09T00:27:10.089Z,1022.74
2024-05-09T00:28:09.305Z,1022.74
2024-05-09T00:29:09.635Z,1022.69
2024-05-09T00:30:14.377Z,1022.68
2024-05-09T00:31:11.166Z,1022.70
2024-05-09T00:32:10.558Z,1022.70
2024-05-09T00:33:11.730Z,1022.64
2024-05-09T00:34:11.165Z,1022.66
2024-05-09T00:35:11.221Z,1022.67
2024-05-09T00:36:11.532Z,1022.60
2024-05-09T00:37:11.842Z,1022.56
2024-05-09T00:38:12.189Z,1022.62
2024-05-09T00:39:12.358Z,1022.57
2024-05-09T00:40:18.717Z,1022.61
2024-05-09T00:41:16.353Z,1022.60
2024-05-09T00:42:13.328Z,1022.64
2024-05-09T00:43:14.773Z,1022.60
2024-05-09T00:44:13.948Z,1022.63
2024-05-09T00:45:14.209Z,1022.59
2024-05-09T00:46:14.562Z,1022.63
2024-05-09T00:47:14.963Z,1022.65
2024-05-09T00:48:17.737Z,1022.60
2024-05-09T00:49:16.619Z,1022.59
2024-05-09T00:50:19.584Z,1022.64
2024-05-09T00:51:17.080Z,1022.57
2024-05-09T00:52:16.302Z,1022.61
2024-05-09T00:53:16.643Z,1022.56
2024-05-09T00:54:16.913Z,1022.51
2024-05-09T00:55:17.243Z,1022.57
2024-05-09T00:56:17.591Z,1022.57
2024-05-09T00:57:17.752Z,1022.61
2024-05-09T00:58:18.067Z,1022.57
2024-05-09T00:59:18.416Z,1022.59
2024-05-09T01:00:26.867Z,1022.65
2024-05-09T01:01:20.086Z,1022.64
2024-05-09T01:02:19.347Z,1022.69
2024-05-09T01:03:20.399Z,1022.67
2024-05-09T01:04:19.953Z,1022.68
2024-05-09T01:05:20.155Z,1022.73
2024-05-09T01:06:20.439Z,1022.68
2024-05-09T01:07:20.767Z,1022.70
2024-05-09T01:08:21.315Z,1022.63
2024-05-09T01:09:21.394Z,1022.64
2024-05-09T01:10:27.974Z,1022.62
2024-05-09T01:11:23.032Z,1022.70
2024-05-09T01:12:22.380Z,1022.66
2024-05-09T01:13:22.500Z,1022.66
2024-05-09T01:14:22.900Z,1022.67
2024-05-09T01:15:23.056Z,1022.71
2024-05-09T01:16:23.373Z,1022.76
2024-05-09T01:17:23.775Z,1022.80
2024-05-09T01:18:24.199Z,1022.80
2024-05-09T01:19:24.491Z,1022.68
2024-05-09T01:20:36.455Z,1022.77
2024-05-09T01:21:26.044Z,1022.69
2024-05-09T01:22:25.209Z,1022.70
2024-05-09T01:23:25.639Z,1022.75
2024-05-09T01:24:25.801Z,1022.67
2024-05-09T01:25:26.108Z,1022.68
2024-05-09T01:26:26.466Z,1022.68
2024-05-09T01:27:26.785Z,1022.63
2024-05-09T01:28:27.105Z,1022.65
2024-05-09T01:29:27.407Z,1022.64
2024-05-09T01:30:34.098Z,1022.67
2024-05-09T01:31:29.102Z,1022.63
2024-05-09T01:32:28.377Z,1022.63
2024-05-09T01:33:28.542Z,1022.69
2024-05-09T01:34:28.745Z,1022.67
2024-05-09T01:35:29.200Z,1022.70
2024-05-09T01:36:29.388Z,1022.72
2024-05-09T01:37:29.709Z,1022.76
2024-05-09T01:38:30.131Z,1022.77
2024-05-09T01:39:30.354Z,1022.75
2024-05-09T01:40:37.268Z,1022.78
2024-05-09T01:41:31.929Z,1022.78
2024-05-09T01:42:31.185Z,1022.77
2024-05-09T01:43:31.478Z,1022.76
2024-05-09T01:44:31.852Z,1022.80
2024-05-09T01:45:32.115Z,1022.81
2024-05-09T01:46:32.490Z,1022.78
2024-05-09T01:47:32.994Z,1022.77
2024-05-09T01:48:33.202Z,1022.73
2024-05-09T01:49:33.455Z,1022.75
2024-05-09T01:50:38.769Z,1022.73
2024-05-09T01:51:34.939Z,1022.74
2024-05-09T01:52:34.161Z,1022.68
2024-05-09T01:53:34.505Z,1022.68
2024-05-09T01:54:34.749Z,1022.67
2024-05-09T01:55:35.117Z,1022.68
2024-05-09T01:56:35.453Z,1022.61
2024-05-09T01:57:35.724Z,1022.65
2024-05-09T01:58:36.043Z,1022.61
2024-05-09T01:59:36.395Z,1022.60
2024-05-09T02:00:40.632Z,1022.67
2024-05-09T02:01:55.740Z,1022.64
2024-05-09T02:02:38.315Z,1022.65
2024-05-09T02:03:37.616Z,1022.56
2024-05-09T02:04:37.797Z,1022.61
2024-05-09T02:05:38.111Z,1022.64
2024-05-09T02:06:38.291Z,1022.61
2024-05-09T02:07:38.564Z,1022.58
2024-05-09T02:08:38.963Z,1022.57
2024-05-09T02:09:39.131Z,1022.59
2024-05-09T02:10:39.507Z,1022.65
2024-05-09T02:11:39.962Z,1022.67
2024-05-09T02:12:40.073Z,1022.65
2024-05-09T02:13:40.386Z,1022.63
2024-05-09T02:14:40.727Z,1022.65
2024-05-09T02:15:41.024Z,1022.61
2024-05-09T02:16:41.299Z,1022.63
2024-05-09T02:17:41.884Z,1022.61
2024-05-09T02:18:42.080Z,1022.55
2024-05-09T02:19:42.266Z,1022.61
2024-05-09T02:20:43.433Z,1022.57
2024-05-09T02:21:42.884Z,1022.59
2024-05-09T02:22:43.249Z,1022.57
2024-05-09T02:23:43.617Z,1022.64
2024-05-09T02:24:43.874Z,1022.59
2024-05-09T02:25:44.186Z,1022.53
2024-05-09T02:26:44.460Z,1022.63
2024-05-09T02:27:44.776Z,1022.61
2024-05-09T02:28:45.062Z,1022.62
2024-05-09T02:29:45.325Z,1022.61
2024-05-09T02:30:45.672Z,1022.67
2024-05-09T02:31:46.123Z,1022.63
2024-05-09T02:32:46.520Z,1022.62
2024-05-09T02:33:46.898Z,1022.57
2024-05-09T02:34:46.951Z,1022.62
2024-05-09T02:35:47.187Z,1022.54
2024-05-09T02:36:47.526Z,1022.61
2024-05-09T02:37:47.979Z,1022.53
2024-05-09T02:38:48.155Z,1022.55
2024-05-09T02:39:48.451Z,1022.53
2024-05-09T02:40:48.798Z,1022.60
2024-05-09T02:41:49.115Z,1022.60
2024-05-09T02:42:49.433Z,1022.60
2024-05-09T02:43:49.742Z,1022.63
2024-05-09T02:44:50.030Z,1022.60
2024-05-09T02:45:50.363Z,1022.63
2024-05-09T02:46:50.727Z,1022.64
2024-05-09T02:47:51.083Z,1022.58
2024-05-09T02:48:51.390Z,1022.58
2024-05-09T02:49:51.544Z,1022.58
2024-05-09T02:50:51.978Z,1022.60
2024-05-09T02:51:52.219Z,1022.63
2024-05-09T02:52:52.546Z,1022.55
2024-05-09T02:53:52.814Z,1022.60
2024-05-09T02:54:53.202Z,1022.59
2024-05-09T02:55:53.587Z,1022.58
2024-05-09T02:56:53.808Z,1022.59
2024-05-09T02:57:54.065Z,1022.53
2024-05-09T02:58:54.456Z,1022.57
2024-05-09T02:59:54.707Z,1022.58
2024-05-09T03:00:55.088Z,1022.55
2024-05-09T03:01:55.466Z,1022.52
2024-05-09T03:02:55.780Z,1022.51
2024-05-09T03:03:56.233Z,1022.55
2024-05-09T03:04:56.458Z,1022.58
2024-05-09T03:05:56.664Z,1022.58
2024-05-09T03:06:56.875Z,1022.50
2024-05-09T03:07:57.178Z,1022.53
2024-05-09T03:08:57.454Z,1022.57
2024-05-09T03:09:57.774Z,1022.54
2024-05-09T03:10:58.087Z,1022.59
2024-05-09T03:11:58.312Z,1022.59
2024-05-09T03:12:58.568Z,1022.59
2024-05-09T03:13:58.852Z,1022.57
2024-05-09T03:14:59.152Z,1022.59
2024-05-09T03:15:59.480Z,1022.59
2024-05-09T03:16:59.814Z,1022.62
2024-05-09T03:18:00.239Z,1022.59
2024-05-09T03:19:00.417Z,1022.62
2024-05-09T03:20:00.684Z,1022.59
2024-05-09T03:21:01.068Z,1022.61
2024-05-09T03:22:01.103Z,1022.63
2024-05-09T03:23:01.520Z,1022.56
2024-05-09T03:24:01.702Z,1022.57
2024-05-09T03:25:02.010Z,1022.61
2024-05-09T03:26:02.305Z,1022.62
2024-05-09T03:27:02.484Z,1022.62
2024-05-09T03:28:02.713Z,1022.55
2024-05-09T03:29:03.038Z,1022.53
2024-05-09T03:30:05.504Z,1022.63
2024-05-09T03:31:03.450Z,1022.61
2024-05-09T03:32:03.831Z,1022.69
2024-05-09T03:33:04.305Z,1022.65
2024-05-09T03:34:04.854Z,1022.64
2024-05-09T03:35:04.685Z,1022.69
2024-05-09T03:36:06.900Z,1022.65
2024-05-09T03:37:05.269Z,1022.68
2024-05-09T03:38:05.719Z,1022.67
2024-05-09T03:39:05.884Z,1022.71
2024-05-09T03:40:09.127Z,1022.65
2024-05-09T05:12:05.441Z,1022.77
2024-05-09T05:13:03.990Z,1022.73
2024-05-09T05:14:04.524Z,1022.75
2024-05-09T05:15:04.618Z,1022.72
2024-05-09T05:16:04.932Z,1022.68
2024-05-09T05:17:05.197Z,1022.73
2024-05-09T05:18:05.640Z,1022.70
2024-05-09T05:19:09.025Z,1022.71
2024-05-09T05:20:08.554Z,1022.73
2024-05-09T05:21:06.344Z,1022.71
2024-05-09T05:22:06.594Z,1022.73
2024-05-09T05:23:06.852Z,1022.74
2024-05-09T05:24:07.078Z,1022.74
2024-05-09T05:25:07.362Z,1022.74
2024-05-09T05:26:07.822Z,1022.72
2024-05-09T05:27:07.934Z,1022.71
2024-05-09T05:28:08.138Z,1022.66
2024-05-09T05:29:08.570Z,1022.65
2024-05-09T05:30:14.726Z,1022.61
2024-05-09T05:31:10.075Z,1022.57
2024-05-09T05:32:09.321Z,1022.58
2024-05-09T05:33:09.714Z,1022.49
2024-05-09T05:34:09.884Z,1022.46
2024-05-09T05:35:10.270Z,1022.50
2024-05-09T05:36:10.376Z,1022.49
2024-05-09T05:37:10.595Z,1022.44
2024-05-09T05:38:11.105Z,1022.43
2024-05-09T05:39:11.144Z,1022.46
2024-05-09T05:40:14.662Z,1022.40
2024-05-09T05:41:12.830Z,1022.46
2024-05-09T05:42:12.054Z,1022.48
2024-05-09T05:43:12.318Z,1022.48
2024-05-09T05:44:12.623Z,1022.48
2024-05-09T05:45:12.844Z,1022.50
2024-05-09T05:46:13.099Z,1022.46
2024-05-09T05:47:13.582Z,1022.43
2024-05-09T05:48:14.135Z,1022.38
2024-05-09T05:49:14.265Z,1022.37
2024-05-09T05:50:23.812Z,1022.41
2024-05-09T05:51:15.785Z,1022.35
2024-05-09T05:52:14.996Z,1022.37
2024-05-09T05:53:15.651Z,1022.35
2024-05-09T05:54:15.501Z,1022.33
2024-05-09T05:55:15.952Z,1022.33
2024-05-09T05:56:16.104Z,1022.38
2024-05-09T05:57:16.304Z,1022.32
2024-05-09T05:58:16.799Z,1022.30
2024-05-09T05:59:16.925Z,1022.29
2024-05-09T06:00:26.083Z,1022.30
2024-05-09T06:01:18.591Z,1022.29
2024-05-09T06:02:18.088Z,1022.33
2024-05-09T06:03:18.158Z,1022.35
2024-05-09T06:04:18.602Z,1022.31
2024-05-09T06:05:18.786Z,1022.30
2024-05-09T06:06:19.020Z,1022.25
2024-05-09T06:07:19.320Z,1022.28
2024-05-09T06:08:19.608Z,1022.28
2024-05-09T06:09:19.912Z,1022.29
2024-05-09T06:10:25.475Z,1022.27
2024-05-09T06:11:21.608Z,1022.21
2024-05-09T06:12:20.920Z,1022.23
2024-05-09T06:13:21.082Z,1022.17
2024-05-09T06:14:21.472Z,1022.24
2024-05-09T06:15:21.561Z,1022.23
2024-05-09T06:16:21.790Z,1022.22
2024-05-09T06:17:22.317Z,1022.24
2024-05-09T06:18:22.531Z,1022.25
2024-05-09T06:19:22.785Z,1022.30
2024-05-09T06:20:31.775Z,1022.29
2024-05-09T06:21:24.281Z,1022.29
2024-05-09T06:22:23.434Z,1022.25
2024-05-09T06:23:23.875Z,1022.25
2024-05-09T06:24:24.105Z,1022.22
2024-05-09T06:25:24.296Z,1022.21
2024-05-09T06:26:24.582Z,1022.22
2024-05-09T06:27:24.795Z,1022.19
2024-05-09T06:28:25.166Z,1022.23
2024-05-09T06:29:25.395Z,1022.17
2024-05-09T06:30:34.452Z,1022.24
2024-05-09T06:31:26.856Z,1022.19
2024-05-09T06:32:26.306Z,1022.21
2024-05-09T06:33:26.778Z,1022.21
2024-05-09T06:34:26.961Z,1022.17
2024-05-09T06:35:27.022Z,1022.15
2024-05-09T06:36:27.269Z,1022.14
2024-05-09T06:37:27.501Z,1022.06
2024-05-09T06:38:27.831Z,1022.09
2024-05-09T06:39:28.066Z,1022.16
2024-05-09T06:40:36.711Z,1022.17
2024-05-09T06:41:29.661Z,1022.13
2024-05-09T06:42:28.868Z,1022.06
2024-05-09T06:43:29.094Z,1022.10
2024-05-09T06:44:29.573Z,1022.08
2024-05-09T06:45:29.707Z,1022.04
2024-05-09T06:46:29.986Z,1022.05
2024-05-09T06:47:30.392Z,1022.06
2024-05-09T06:48:30.650Z,1021.95
2024-05-09T06:49:30.942Z,1022.06
2024-05-09T06:50:37.020Z,1022.02
2024-05-09T06:51:32.356Z,1022.00
2024-05-09T06:52:31.642Z,1022.09
2024-05-09T06:53:32.016Z,1022.02
2024-05-09T06:54:32.264Z,1022.02
2024-05-09T06:55:32.490Z,1022.06
2024-05-09T06:56:33.031Z,1022.08
2024-05-09T06:57:33.291Z,1022.03
2024-05-09T06:58:33.505Z,1022.12
2024-05-09T06:59:33.841Z,1022.11
2024-05-09T07:00:38.685Z,1022.11
2024-05-09T07:01:35.370Z,1022.01
2024-05-09T07:02:34.758Z,1022.11
2024-05-09T07:03:35.022Z,1022.10
2024-05-09T07:04:35.212Z,1022.10
2024-05-09T07:05:35.540Z,1022.11
2024-05-09T07:06:35.778Z,1022.11
2024-05-09T07:07:36.021Z,1022.08
2024-05-09T07:08:36.451Z,1022.06
2024-05-09T07:09:36.520Z,1022.13
2024-05-09T07:10:37.325Z,1022.15
2024-05-09T07:11:37.246Z,1022.16
2024-05-09T07:12:37.485Z,1022.19
2024-05-09T07:13:37.767Z,1022.16
2024-05-09T07:14:38.634Z,1022.19
2024-05-09T07:15:38.344Z,1022.22
2024-05-09T07:16:38.558Z,1022.22
2024-05-09T07:17:39.451Z,1022.23
2024-05-09T07:18:39.372Z,1022.19
2024-05-09T07:19:39.385Z,1022.21
2024-05-09T07:20:39.808Z,1022.18
2024-05-09T07:21:39.907Z,1022.19
2024-05-09T07:22:40.130Z,1022.19
2024-05-09T07:23:42.484Z,1022.18
2024-05-09T07:24:40.842Z,1022.17
2024-05-09T07:25:41.122Z,1022.24
2024-05-09T07:26:41.465Z,1022.22
2024-05-09T07:27:41.628Z,1022.20
2024-05-09T07:28:41.827Z,1022.27
2024-05-09T07:29:42.145Z,1022.23
2024-05-09T07:30:42.322Z,1022.26
2024-05-09T07:31:42.586Z,1022.29
2024-05-09T07:32:42.892Z,1022.25
2024-05-09T07:33:43.270Z,1022.26
2024-05-09T07:34:43.496Z,1022.25
2024-05-09T07:35:43.856Z,1022.23
2024-05-09T07:36:44.037Z,1022.23
2024-05-09T07:37:44.267Z,1022.22
2024-05-09T07:38:44.592Z,1022.21
2024-05-09T07:39:44.839Z,1022.21
2024-05-09T07:40:45.216Z,1022.21
2024-05-09T07:41:45.482Z,1022.19
2024-05-09T07:42:45.725Z,1022.20
2024-05-09T07:43:45.987Z,1022.18
2024-05-09T07:44:47.134Z,1022.22
2024-05-09T07:45:58.243Z,1022.19
2024-05-09T07:47:48.556Z,1022.19
2024-05-09T07:49:13.248Z,1022.18
2024-05-09T07:51:32.594Z,1022.15
2024-05-09T07:53:17.416Z,1022.15
2024-05-09T07:53:35.024Z,1022.12
2024-05-09T07:53:52.522Z,1022.13
2024-05-09T07:54:50.251Z,1022.12
2024-05-09T07:55:49.425Z,1022.08
2024-05-09T07:56:49.904Z,1022.06
2024-05-09T07:57:49.966Z,1022.07
2024-05-09T07:58:50.278Z,1022.11
2024-05-09T07:59:50.473Z,1022.13
2024-05-09T08:00:50.771Z,1022.13
2024-05-09T08:01:51.080Z,1022.13
2024-05-09T08:02:51.383Z,1022.06
2024-05-09T08:03:51.779Z,1022.09
2024-05-09T08:04:52.016Z,1022.05
2024-05-09T08:05:52.324Z,1022.06
2024-05-09T08:06:52.452Z,1022.06
2024-05-09T08:07:52.684Z,1022.06
2024-05-09T08:08:53.065Z,1022.02
2024-05-09T08:09:54.069Z,1022.09
2024-05-09T08:10:53.695Z,1022.07
2024-05-09T08:11:53.847Z,1022.10
2024-05-09T08:12:54.158Z,1022.04
2024-05-09T08:13:54.467Z,1022.11
2024-05-09T08:14:54.899Z,1022.12
2024-05-09T08:15:54.966Z,1022.13
2024-05-09T08:16:55.238Z,1022.12
2024-05-09T08:17:55.512Z,1022.02
2024-05-09T08:18:55.960Z,1022.05
2024-05-09T08:19:55.997Z,1022.05
2024-05-09T08:20:56.236Z,1022.04
2024-05-09T08:21:56.526Z,1021.99
2024-05-09T08:22:56.744Z,1022.03
2024-05-09T08:23:56.985Z,1022.02
2024-05-09T08:24:57.339Z,1022.00
2024-05-09T08:25:57.593Z,1021.92
2024-05-09T08:26:57.856Z,1022.00
2024-05-09T08:29:18.216Z,1022.05
2024-05-09T08:30:25.355Z,1021.99
2024-05-09T08:31:19.611Z,1022.06
2024-05-09T08:32:22.235Z,1022.00
2024-05-09T08:33:19.501Z,1022.00
2024-05-09T08:34:19.546Z,1022.01
2024-05-09T08:35:19.754Z,1021.90
2024-05-09T08:36:20.049Z,1021.90
2024-05-09T08:37:23.418Z,1021.90
2024-05-09T08:38:21.512Z,1021.89
2024-05-09T08:39:20.904Z,1021.95
2024-05-09T08:40:30.538Z,1021.92
2024-05-09T08:41:22.652Z,1021.84
2024-05-09T08:42:21.783Z,1021.97
2024-05-09T08:43:22.138Z,1022.02
2024-05-09T08:44:22.398Z,1021.93
2024-05-09T08:45:22.607Z,1021.95
2024-05-09T08:46:23.123Z,1021.97
2024-05-09T08:47:23.374Z,1021.93
2024-05-09T08:48:23.705Z,1021.97
2024-05-09T08:49:23.756Z,1021.96
2024-05-09T08:50:32.002Z,1021.93
2024-05-09T08:51:25.263Z,1021.91
2024-05-09T08:52:24.572Z,1021.87
2024-05-09T08:53:24.845Z,1021.92
2024-05-09T08:54:25.240Z,1021.85
2024-05-09T08:55:25.812Z,1021.84
2024-05-09T08:56:25.732Z,1021.80
2024-05-09T08:57:25.973Z,1021.87
2024-05-09T08:58:26.149Z,1021.83
2024-05-09T08:59:26.624Z,1021.85
2024-05-09T09:00:35.544Z,1021.81
2024-05-09T09:01:27.923Z,1021.84
2024-05-09T09:02:27.192Z,1021.82
2024-05-09T09:03:27.572Z,1021.84
2024-05-09T09:04:27.720Z,1021.82
2024-05-09T09:05:28.161Z,1021.86
2024-05-09T09:06:28.268Z,1021.81
2024-05-09T09:07:28.625Z,1021.85
2024-05-09T09:08:28.775Z,1021.85
2024-05-09T09:09:29.124Z,1021.84
2024-05-09T09:10:32.246Z,1021.84
2024-05-09T09:11:29.565Z,1021.88
2024-05-09T09:12:29.835Z,1021.84
2024-05-09T09:13:30.078Z,1021.88
2024-05-09T09:14:30.395Z,1021.86
2024-05-09T09:15:30.740Z,1021.82
2024-05-09T09:16:31.028Z,1021.85
2024-05-09T09:17:31.195Z,1021.84
2024-05-09T09:18:31.747Z,1021.86
2024-05-09T09:19:31.827Z,1021.86
2024-05-09T09:20:36.454Z,1021.88
2024-05-09T09:21:33.173Z,1021.90
2024-05-09T09:22:32.457Z,1021.88
2024-05-09T09:23:32.760Z,1021.88
2024-05-09T09:24:33.064Z,1021.88
2024-05-09T09:25:33.471Z,1021.88
2024-05-09T09:26:33.551Z,1021.85
2024-05-09T09:27:33.895Z,1021.85
2024-05-09T09:28:34.131Z,1021.86
2024-05-09T09:29:34.430Z,1021.87
2024-05-09T09:30:37.680Z,1021.82
2024-05-09T09:31:35.119Z,1021.88
2024-05-09T09:32:35.431Z,1021.88
2024-05-09T09:33:36.238Z,1021.87
2024-05-09T09:34:35.961Z,1021.80
2024-05-09T09:35:36.206Z,1021.85
2024-05-09T09:36:36.562Z,1021.84
2024-05-09T09:37:36.866Z,1021.81
2024-05-09T09:38:37.139Z,1021.86
2024-05-09T09:39:37.415Z,1021.84
2024-05-09T09:40:42.485Z,1021.81
2024-05-09T09:41:38.958Z,1021.79
2024-05-09T09:42:38.428Z,1021.78
2024-05-09T09:43:38.500Z,1021.79
2024-05-09T09:44:42.129Z,1021.82
2024-05-09T09:45:39.137Z,1021.75
2024-05-09T09:46:39.584Z,1021.78
2024-05-09T09:47:39.777Z,1021.80
2024-05-09T09:48:40.129Z,1021.77
2024-05-09T09:49:40.296Z,1021.77
2024-05-09T09:50:40.471Z,1021.73
2024-05-09T09:51:40.784Z,1021.76
2024-05-09T09:52:41.059Z,1021.79
2024-05-09T09:53:41.285Z,1021.69
2024-05-09T09:54:41.680Z,1021.68
2024-05-09T09:55:41.783Z,1021.73
2024-05-09T09:56:42.094Z,1021.74
2024-05-09T09:57:42.399Z,1021.71
2024-05-09T09:58:42.669Z,1021.73
2024-05-09T09:59:42.939Z,1021.69
2024-05-09T10:00:43.565Z,1021.70
2024-05-09T10:01:43.644Z,1021.61
2024-05-09T10:02:43.809Z,1021.65
2024-05-09T10:03:44.204Z,1021.62
2024-05-09T10:04:44.547Z,1021.64
2024-05-09T10:05:47.045Z,1021.62
2024-05-09T10:06:44.827Z,1021.61
2024-05-09T10:07:45.035Z,1021.60
2024-05-09T10:08:45.294Z,1021.65
2024-05-09T10:09:45.658Z,1021.61
2024-05-09T10:10:46.091Z,1021.58
2024-05-09T10:11:51.799Z,1021.54
2024-05-09T10:12:47.381Z,1021.63
2024-05-09T10:13:46.677Z,1021.59
2024-05-09T10:14:46.929Z,1021.62
2024-05-09T10:15:47.322Z,1021.60
2024-05-09T10:16:47.524Z,1021.55
2024-05-09T10:17:47.827Z,1021.59
2024-05-09T10:18:48.232Z,1021.61
2024-05-09T10:19:48.541Z,1021.59
2024-05-09T10:20:48.776Z,1021.58
2024-05-09T10:21:49.044Z,1021.62
2024-05-09T10:22:49.318Z,1021.57
2024-05-09T10:23:49.573Z,1021.58
2024-05-09T10:24:49.831Z,1021.60
2024-05-09T10:25:50.098Z,1021.52
2024-05-09T10:26:50.324Z,1021.54
2024-05-09T10:27:50.618Z,1021.56
2024-05-09T10:28:50.858Z,1021.52
2024-05-09T10:29:51.155Z,1021.41
2024-05-09T10:30:51.413Z,1021.40
2024-05-09T10:31:51.680Z,1021.41
2024-05-09T10:32:51.938Z,1021.45
2024-05-09T10:33:53.059Z,1021.41
2024-05-09T10:34:52.422Z,1021.44
2024-05-09T10:35:52.666Z,1021.43
2024-05-09T10:36:53.118Z,1021.40
2024-05-09T10:37:53.293Z,1021.42
2024-05-09T10:38:53.631Z,1021.44
2024-05-09T10:39:53.929Z,1021.41
2024-05-09T10:40:54.104Z,1021.38
2024-05-09T10:41:54.483Z,1021.37
2024-05-09T10:42:54.903Z,1021.44
2024-05-09T10:43:54.954Z,1021.39
2024-05-09T10:44:55.192Z,1021.38
2024-05-09T10:45:55.659Z,1021.35
2024-05-09T10:46:55.841Z,1021.36
2024-05-09T10:47:56.186Z,1021.34
2024-05-09T10:48:56.323Z,1021.30
2024-05-09T10:49:56.591Z,1021.33
2024-05-09T10:50:56.838Z,1021.33
2024-05-09T10:51:57.150Z,1021.29
2024-05-09T10:52:57.400Z,1021.31
2024-05-09T10:53:57.633Z,1021.25
2024-05-09T10:54:57.970Z,1021.24
2024-05-09T10:55:58.227Z,1021.31
2024-05-09T10:56:58.451Z,1021.27
2024-05-09T10:57:58.773Z,1021.26
2024-05-09T10:58:58.965Z,1021.27
2024-05-09T10:59:59.367Z,1021.23
2024-05-09T11:01:01.173Z,1021.33
2024-05-09T11:01:59.980Z,1021.31
2024-05-09T11:03:00.322Z,1021.32
2024-05-09T11:04:00.707Z,1021.27
2024-05-09T11:05:01.019Z,1021.28
2024-05-09T11:06:01.098Z,1021.28
2024-05-09T11:07:04.578Z,1021.23
2024-05-09T11:08:01.713Z,1021.22
2024-05-09T11:09:01.968Z,1021.21
2024-05-09T11:10:02.266Z,1021.22
2024-05-09T11:11:02.505Z,1021.19
2024-05-09T11:12:02.825Z,1021.21
2024-05-09T11:13:03.088Z,1021.19
2024-05-09T11:14:03.322Z,1021.13
2024-05-09T11:15:03.561Z,1021.14
2024-05-09T11:16:03.926Z,1021.10
2024-05-09T11:17:04.201Z,1021.09
2024-05-09T11:18:04.442Z,1021.10
2024-05-09T11:19:04.855Z,1021.14
2024-05-09T11:20:13.289Z,1021.15
2024-05-09T11:21:06.160Z,1021.13
2024-05-09T11:22:05.466Z,1021.11
2024-05-09T11:23:05.676Z,1021.13
2024-05-09T11:24:08.685Z,1021.11
2024-05-09T11:25:06.395Z,1021.11
2024-05-09T11:26:06.501Z,1021.15
2024-05-09T11:27:06.787Z,1021.11
2024-05-09T11:28:07.119Z,1021.14
2024-05-09T11:29:07.328Z,1021.14
2024-05-09T11:30:14.169Z,1021.11
2024-05-09T11:31:09.862Z,1021.11
2024-05-09T11:32:08.220Z,1021.10
2024-05-09T11:33:08.435Z,1021.06
2024-05-09T11:34:08.727Z,1021.00
2024-05-09T11:35:08.953Z,1021.07
2024-05-09T11:36:09.232Z,1020.98
2024-05-09T11:37:09.536Z,1020.99
2024-05-09T11:38:09.788Z,1020.93
2024-05-09T11:39:10.001Z,1020.96
2024-05-09T11:40:16.827Z,1020.90
2024-05-09T11:41:11.657Z,1020.91
2024-05-09T11:42:10.816Z,1020.96
2024-05-09T11:43:11.080Z,1020.91
2024-05-09T11:44:11.325Z,1020.85
2024-05-09T11:45:11.527Z,1020.94
2024-05-09T11:46:11.985Z,1020.85
2024-05-09T11:47:12.141Z,1020.85
2024-05-09T11:48:12.479Z,1020.86
2024-05-09T11:49:12.967Z,1020.79
2024-05-09T11:50:19.528Z,1020.79
2024-05-09T11:51:14.406Z,1020.75
2024-05-09T11:52:13.804Z,1020.80
2024-05-09T11:53:14.061Z,1020.73
2024-05-09T11:54:14.302Z,1020.72
2024-05-09T11:55:14.738Z,1020.75
2024-05-09T11:56:14.888Z,1020.75
2024-05-09T11:57:15.217Z,1020.73
2024-05-09T11:58:15.700Z,1020.76
2024-05-09T11:59:15.800Z,1020.69
2024-05-09T12:00:24.528Z,1020.74
2024-05-09T12:01:17.442Z,1020.77
2024-05-09T12:02:18.967Z,1020.79
2024-05-09T12:03:17.018Z,1020.75
2024-05-09T12:04:17.405Z,1020.69
2024-05-09T12:05:17.652Z,1020.75
2024-05-09T12:06:18.199Z,1020.65
2024-05-09T12:07:17.931Z,1020.62
2024-05-09T12:08:18.246Z,1020.64
2024-05-09T12:09:18.478Z,1020.69
2024-05-09T12:10:22.433Z,1020.67
2024-05-09T12:11:20.054Z,1020.68
2024-05-09T12:12:19.324Z,1020.63
2024-05-09T12:13:19.790Z,1020.60
2024-05-09T12:14:19.864Z,1020.68
2024-05-09T12:15:20.162Z,1020.68
2024-05-09T12:16:20.691Z,1020.70
2024-05-09T12:17:20.852Z,1020.63
2024-05-09T12:18:21.161Z,1020.60
2024-05-09T12:19:22.433Z,1020.59
2024-05-09T12:20:32.408Z,1020.61
2024-05-09T12:21:23.105Z,1020.65
2024-05-09T12:22:22.151Z,1020.64
2024-05-09T12:23:22.414Z,1020.59
2024-05-09T12:24:22.658Z,1020.61
2024-05-09T12:25:23.020Z,1020.66
2024-05-09T12:26:23.132Z,1020.61
2024-05-09T12:27:23.329Z,1020.62
2024-05-09T12:28:23.725Z,1020.57
2024-05-09T12:29:23.939Z,1020.56
2024-05-09T12:30:33.274Z,1020.53
2024-05-09T12:31:25.641Z,1020.56
2024-05-09T12:32:24.868Z,1020.51
2024-05-09T12:33:25.308Z,1020.51
2024-05-09T12:34:25.477Z,1020.52
2024-05-09T12:35:25.746Z,1020.50
2024-05-09T12:36:25.970Z,1020.47
2024-05-09T12:37:26.233Z,1020.43
2024-05-09T12:38:26.400Z,1020.49
2024-05-09T12:39:26.663Z,1020.49
2024-05-09T12:40:35.338Z,1020.45
2024-05-09T12:41:28.349Z,1020.45
2024-05-09T12:42:29.084Z,1020.43
2024-05-09T12:43:28.037Z,1020.41
2024-05-09T12:44:28.165Z,1020.44
2024-05-09T12:45:28.549Z,1020.46
2024-05-09T12:46:28.976Z,1020.47
2024-05-09T12:47:29.238Z,1020.41
2024-05-09T12:48:29.884Z,1020.41
2024-05-09T12:49:29.816Z,1020.41
2024-05-09T12:50:33.271Z,1020.42
2024-05-09T12:51:30.381Z,1020.37
2024-05-09T12:52:30.601Z,1020.37
2024-05-09T12:53:30.826Z,1020.32
2024-05-09T12:54:31.138Z,1020.33
2024-05-09T12:55:37.350Z,1020.29
2024-05-09T12:56:32.725Z,1020.25
2024-05-09T12:57:32.025Z,1020.27
2024-05-09T12:58:32.227Z,1020.22
2024-05-09T12:59:32.455Z,1020.22
2024-05-09T13:00:34.321Z,1020.18
2024-05-09T13:01:33.102Z,1020.13
2024-05-09T13:02:33.363Z,1020.15
2024-05-09T13:03:33.673Z,1020.15
2024-05-09T13:04:34.088Z,1020.13
2024-05-09T13:05:34.311Z,1020.07
2024-05-09T13:06:34.519Z,1020.09
2024-05-09T13:07:34.731Z,1020.07
2024-05-09T13:08:35.082Z,1020.10
2024-05-09T13:09:35.369Z,1020.04
2024-05-09T13:10:35.743Z,1020.03
2024-05-09T13:11:35.975Z,1020.04
2024-05-09T13:12:36.272Z,1020.01
2024-05-09T13:13:36.480Z,1019.97
2024-05-09T13:14:36.723Z,1020.00
2024-05-09T13:15:37.033Z,1019.92
2024-05-09T13:16:37.340Z,1019.94
2024-05-09T13:17:37.667Z,1019.98
2024-05-09T13:18:38.048Z,1019.92
2024-05-09T13:19:38.251Z,1019.94
2024-05-09T13:20:38.496Z,1019.90
2024-05-09T13:21:38.795Z,1019.90
2024-05-09T13:22:39.015Z,1019.91
2024-05-09T13:23:39.234Z,1019.91
2024-05-09T13:24:39.475Z,1019.85
2024-05-09T13:25:39.738Z,1019.86
2024-05-09T13:26:39.951Z,1019.86
2024-05-09T13:27:40.228Z,1019.88
2024-05-09T13:28:40.643Z,1019.83
2024-05-09T13:29:42.788Z,1019.84
2024-05-09T13:30:42.299Z,1019.86
2024-05-09T13:31:41.452Z,1019.78
2024-05-09T13:32:41.794Z,1019.79
2024-05-09T13:33:42.219Z,1019.75
2024-05-09T13:34:42.411Z,1019.73
2024-05-09T13:35:47.124Z,1019.76
2024-05-09T13:36:43.892Z,1019.81
2024-05-09T13:37:43.119Z,1019.80
2024-05-09T13:38:43.397Z,1019.79
2024-05-09T13:39:43.642Z,1019.73
2024-05-09T13:40:44.194Z,1019.78
2024-05-09T13:41:44.149Z,1019.72
2024-05-09T13:42:45.660Z,1019.73